• Join FlightAware (Why Join?)
  • Login
  • US Flag 
05:30PM EDT


 

Airport Tracker/Info


-or-


 

Live Flight TrackerFlight Track Log ✈ N45EJ ✈ 30-May-2014 ✈ KOMA - KGRI

Flight Track Log - Related Links

Times and Time Zones

All times are in EDT time to prevent confusion due to time zone crossing. See the N45EJ flight status page for this flight to view local times or setup timezone preferences in your user account.

Time Position Orientation Groundspeed Altitude Reporting Facility
EDT Latitude Longitude Course Direction KTS MPH feet Rate Location/Type
03:32PM 41.2672 -95.8839 168° South 193 222 3,900  Level Minneapolis Center
03:33PM 41.2114 -95.9236 208° Southwest 281 323 7,600 3,720 Climbing Minneapolis Center
03:34PM 41.1950 -96.0281 258° West 305 351 11,500 2,400 Climbing Minneapolis Center
03:35PM 41.1839 -96.1700 264° West 349 402 12,800 1,500 Climbing Minneapolis Center
03:36PM 41.1711 -96.3019 263° West 358 412 14,800 1,560 Climbing Minneapolis Center
03:37PM 41.1594 -96.4292 263° West 353 406 16,000 1,020 Climbing Minneapolis Center
03:38PM 41.1475 -96.5592 263° West 353 406 17,000 1,740 Climbing Minneapolis Center
03:39PM 41.1358 -96.6761 262° West 332 382 19,600 1,440 Climbing Minneapolis Center
03:40PM 41.1228 -96.8067 262° West 343 395 20,000 180 Climbing Minneapolis Center
03:41PM 41.1072 -96.9633 263° West 397 457 20,000  Level Minneapolis Center
03:42PM 41.0925 -97.1225 263° West 421 484 20,000 -360 Level Minneapolis Center
03:43PM 41.0725 -97.3122 262° West 430 495 19,300 -1,080 Descending Minneapolis Center
03:44PM 41.0572 -97.4625 262° West 424 488 17,800 -1,680 Descending Minneapolis Center
03:45PM 41.0433 -97.5958 262° West 390 449 15,900 -1,920 Descending Minneapolis Center
03:46PM 41.0306 -97.7231 262° West 365 420 13,900 -2,340 Descending Minneapolis Center
03:47PM 41.0181 -97.8461 262° West 347 399 11,100 -2,820 Descending Minneapolis Center
03:48PM 41.0056 -97.9631 262° West 334 384 8,100 -3,060 Descending Minneapolis Center
03:49PM 40.9919 -98.0886 262° West 305 351 4,800 -2,040 Descending Minneapolis Center
03:50PM 40.9933 -98.1850 271° West 276 318 4,000 -660 Descending Minneapolis Center
03:51PM 41.0056 -98.2586 282° West 231 266 3,500 -780 Descending Minneapolis Center
03:52PM 41.0056 -98.3072 270° West 173 199 2,500 -720 Descending Minneapolis Center
03:53PM 40.9678 -98.3050 177° South 150 173 2,100 -420 Descending Minneapolis Center